sensor_id;sensor_type;location;lat;lon;timestamp;temperature;humidity
26479;DHT22;14163;-26.142;27.992;2023-01-29T00:02:08;29.90;84.10
26479;DHT22;14163;-26.142;27.992;2023-01-29T00:04:36;29.90;84.30
26479;DHT22;14163;-26.142;27.992;2023-01-29T00:07:06;29.80;84.10
26479;DHT22;14163;-26.142;27.992;2023-01-29T00:09:35;29.80;83.70
26479;DHT22;14163;-26.142;27.992;2023-01-29T00:12:03;29.80;83.80
26479;DHT22;14163;-26.142;27.992;2023-01-29T00:14:33;29.90;83.70
26479;DHT22;14163;-26.142;27.992;2023-01-29T00:17:02;29.80;83.80
26479;DHT22;14163;-26.142;27.992;2023-01-29T00:19:30;29.70;83.90
26479;DHT22;14163;-26.142;27.992;2023-01-29T00:21:58;29.80;83.90
26479;DHT22;14163;-26.142;27.992;2023-01-29T00:24:28;29.70;84.20
26479;DHT22;14163;-26.142;27.992;2023-01-29T00:26:57;29.70;84.00
26479;DHT22;14163;-26.142;27.992;2023-01-29T00:29:25;29.80;84.00
26479;DHT22;14163;-26.142;27.992;2023-01-29T00:31:54;29.80;84.30
26479;DHT22;14163;-26.142;27.992;2023-01-29T00:34:22;29.80;84.30
26479;DHT22;14163;-26.142;27.992;2023-01-29T00:36:51;29.90;84.50
26479;DHT22;14163;-26.142;27.992;2023-01-29T00:39:31;29.80;84.40
26479;DHT22;14163;-26.142;27.992;2023-01-29T00:42:04;29.90;84.20
26479;DHT22;14163;-26.142;27.992;2023-01-29T00:44:50;30.00;84.20
26479;DHT22;14163;-26.142;27.992;2023-01-29T00:47:27;29.90;84.50
26479;DHT22;14163;-26.142;27.992;2023-01-29T00:49:58;29.80;84.70
26479;DHT22;14163;-26.142;27.992;2023-01-29T00:52:27;29.80;84.40
26479;DHT22;14163;-26.142;27.992;2023-01-29T00:54:57;29.80;84.70
26479;DHT22;14163;-26.142;27.992;2023-01-29T00:57:26;29.80;84.60
26479;DHT22;14163;-26.142;27.992;2023-01-29T00:59:55;29.90;84.90
26479;DHT22;14163;-26.142;27.992;2023-01-29T01:02:23;29.80;85.30
26479;DHT22;14163;-26.142;27.992;2023-01-29T09:44:37;27.20;99.90
26479;DHT22;14163;-26.142;27.992;2023-01-29T09:47:12;27.40;99.90
26479;DHT22;14163;-26.142;27.992;2023-01-29T09:49:42;28.20;99.90
26479;DHT22;14163;-26.142;27.992;2023-01-29T09:52:13;29.00;99.90
26479;DHT22;14163;-26.142;27.992;2023-01-29T09:54:47;29.60;99.90
26479;DHT22;14163;-26.142;27.992;2023-01-29T09:57:19;30.10;99.90
26479;DHT22;14163;-26.142;27.992;2023-01-29T09:59:52;30.40;99.90
26479;DHT22;14163;-26.142;27.992;2023-01-29T10:02:27;30.60;99.90
26479;DHT22;14163;-26.142;27.992;2023-01-29T10:05:06;31.00;99.90
26479;DHT22;14163;-26.142;27.992;2023-01-29T10:10:29;30.80;99.90
26479;DHT22;14163;-26.142;27.992;2023-01-29T10:13:02;31.20;99.90
26479;DHT22;14163;-26.142;27.992;2023-01-29T10:15:40;31.30;99.90
26479;DHT22;14163;-26.142;27.992;2023-01-29T10:18:28;31.20;99.90
26479;DHT22;14163;-26.142;27.992;2023-01-29T10:21:02;31.30;99.90
26479;DHT22;14163;-26.142;27.992;2023-01-29T10:23:35;31.40;99.90
26479;DHT22;14163;-26.142;27.992;2023-01-29T10:26:06;31.60;99.90
26479;DHT22;14163;-26.142;27.992;2023-01-29T10:28:38;31.70;99.90
26479;DHT22;14163;-26.142;27.992;2023-01-29T10:31:13;31.70;98.80
26479;DHT22;14163;-26.142;27.992;2023-01-29T10:33:44;31.80;98.90
26479;DHT22;14163;-26.142;27.992;2023-01-29T10:36:15;31.80;97.40
26479;DHT22;14163;-26.142;27.992;2023-01-29T10:38:44;31.60;97.70
26479;DHT22;14163;-26.142;27.992;2023-01-29T10:41:18;31.60;97.60
26479;DHT22;14163;-26.142;27.992;2023-01-29T10:43:52;31.70;96.30
26479;DHT22;14163;-26.142;27.992;2023-01-29T13:01:07;34.40;99.90
26479;DHT22;14163;-26.142;27.992;2023-01-29T13:03:41;34.20;99.90
26479;DHT22;14163;-26.142;27.992;2023-01-29T13:06:13;34.60;99.90
26479;DHT22;14163;-26.142;27.992;2023-01-29T13:08:44;35.10;99.90
26479;DHT22;14163;-26.142;27.992;2023-01-29T13:11:23;35.50;99.60
26479;DHT22;14163;-26.142;27.992;2023-01-29T13:13:54;35.80;97.80
26479;DHT22;14163;-26.142;27.992;2023-01-29T13:16:26;35.80;96.80
26479;DHT22;14163;-26.142;27.992;2023-01-29T13:18:55;35.80;96.30
26479;DHT22;14163;-26.142;27.992;2023-01-29T13:21:26;35.60;96.30
26479;DHT22;14163;-26.142;27.992;2023-01-29T13:23:56;35.40;95.40
26479;DHT22;14163;-26.142;27.992;2023-01-29T13:26:27;35.30;95.70
26479;DHT22;14163;-26.142;27.992;2023-01-29T13:28:55;35.10;95.10
26479;DHT22;14163;-26.142;27.992;2023-01-29T13:31:28;35.00;95.40
26479;DHT22;14163;-26.142;27.992;2023-01-29T13:34:04;34.90;95.00
26479;DHT22;14163;-26.142;27.992;2023-01-29T13:36:34;34.70;95.00
26479;DHT22;14163;-26.142;27.992;2023-01-29T13:39:04;34.70;95.10
26479;DHT22;14163;-26.142;27.992;2023-01-29T13:41:34;34.70;95.00
26479;DHT22;14163;-26.142;27.992;2023-01-29T13:44:04;34.50;94.00
26479;DHT22;14163;-26.142;27.992;2023-01-29T13:46:37;34.20;94.60
26479;DHT22;14163;-26.142;27.992;2023-01-29T13:49:11;33.70;96.00
26479;DHT22;14163;-26.142;27.992;2023-01-29T13:51:48;33.50;96.50
26479;DHT22;14163;-26.142;27.992;2023-01-29T13:54:17;33.20;96.80
26479;DHT22;14163;-26.142;27.992;2023-01-29T13:56:56;33.10;96.70
26479;DHT22;14163;-26.142;27.992;2023-01-29T14:02:23;32.80;97.50
26479;DHT22;14163;-26.142;27.992;2023-01-29T14:05:06;32.80;97.60
26479;DHT22;14163;-26.142;27.992;2023-01-29T14:07:54;32.60;94.90
26479;DHT22;14163;-26.142;27.992;2023-01-29T14:10:24;31.70;93.80
26479;DHT22;14163;-26.142;27.992;2023-01-29T14:12:53;31.00;94.70
26479;DHT22;14163;-26.142;27.992;2023-01-29T14:15:23;30.50;95.30
26479;DHT22;14163;-26.142;27.992;2023-01-29T14:17:57;30.40;95.20
26479;DHT22;14163;-26.142;27.992;2023-01-29T14:20:30;30.30;98.00
26479;DHT22;14163;-26.142;27.992;2023-01-29T14:22:58;30.30;99.90
26479;DHT22;14163;-26.142;27.992;2023-01-29T14:25:29;29.80;99.90
26479;DHT22;14163;-26.142;27.992;2023-01-29T14:27:58;29.10;99.90
26479;DHT22;14163;-26.142;27.992;2023-01-29T14:30:27;28.80;99.90
26479;DHT22;14163;-26.142;27.992;2023-01-29T14:32:58;28.50;99.90
26479;DHT22;14163;-26.142;27.992;2023-01-29T14:35:28;28.60;99.90
26479;DHT22;14163;-26.142;27.992;2023-01-29T14:37:59;28.70;99.90
26479;DHT22;14163;-26.142;27.992;2023-01-29T14:40:28;28.80;99.90
26479;DHT22;14163;-26.142;27.992;2023-01-29T14:42:58;29.00;99.90
26479;DHT22;14163;-26.142;27.992;2023-01-29T14:45:28;28.90;99.90
26479;DHT22;14163;-26.142;27.992;2023-01-29T14:48:02;29.00;99.90
26479;DHT22;14163;-26.142;27.992;2023-01-29T14:50:38;29.20;99.90
26479;DHT22;14163;-26.142;27.992;2023-01-29T14:53:09;29.20;99.90
26479;DHT22;14163;-26.142;27.992;2023-01-29T14:55:39;29.10;99.90
26479;DHT22;14163;-26.142;27.992;2023-01-29T14:58:10;28.70;99.90
26479;DHT22;14163;-26.142;27.992;2023-01-29T15:00:41;28.60;99.90
26479;DHT22;14163;-26.142;27.992;2023-01-29T15:03:14;28.70;99.90
26479;DHT22;14163;-26.142;27.992;2023-01-29T15:05:44;28.70;99.90
26479;DHT22;14163;-26.142;27.992;2023-01-29T15:08:16;28.90;99.90
26479;DHT22;14163;-26.142;27.992;2023-01-29T15:10:46;29.40;99.90
26479;DHT22;14163;-26.142;27.992;2023-01-29T15:13:36;29.60;99.90
26479;DHT22;14163;-26.142;27.992;2023-01-29T15:16:08;29.80;99.90
26479;DHT22;14163;-26.142;27.992;2023-01-29T15:18:40;29.80;99.90
26479;DHT22;14163;-26.142;27.992;2023-01-29T15:21:09;29.80;99.90
26479;DHT22;14163;-26.142;27.992;2023-01-29T15:23:38;29.60;99.90
26479;DHT22;14163;-26.142;27.992;2023-01-29T15:26:08;29.40;99.90
26479;DHT22;14163;-26.142;27.992;2023-01-29T15:28:37;29.20;99.90
26479;DHT22;14163;-26.142;27.992;2023-01-29T15:31:07;29.10;99.90
26479;DHT22;14163;-26.142;27.992;2023-01-29T15:33:37;28.90;99.90
26479;DHT22;14163;-26.142;27.992;2023-01-29T15:36:14;28.50;99.90
26479;DHT22;14163;-26.142;27.992;2023-01-29T15:38:45;28.30;99.90
26479;DHT22;14163;-26.142;27.992;2023-01-29T15:41:15;28.10;99.90
26479;DHT22;14163;-26.142;27.992;2023-01-29T15:43:45;28.00;99.90
26479;DHT22;14163;-26.142;27.992;2023-01-29T15:46:16;27.90;99.90
26479;DHT22;14163;-26.142;27.992;2023-01-29T15:48:47;28.10;99.90
26479;DHT22;14163;-26.142;27.992;2023-01-29T15:51:18;28.10;99.90
26479;DHT22;14163;-26.142;27.992;2023-01-29T15:53:48;28.20;99.90
26479;DHT22;14163;-26.142;27.992;2023-01-29T15:56:17;28.30;99.90
26479;DHT22;14163;-26.142;27.992;2023-01-29T15:58:46;28.50;99.90
26479;DHT22;14163;-26.142;27.992;2023-01-29T16:01:15;28.50;99.90
26479;DHT22;14163;-26.142;27.992;2023-01-29T16:03:44;28.90;99.90
26479;DHT22;14163;-26.142;27.992;2023-01-29T16:06:17;29.10;99.90
26479;DHT22;14163;-26.142;27.992;2023-01-29T16:08:47;29.00;99.90
26479;DHT22;14163;-26.142;27.992;2023-01-29T16:11:16;28.60;99.90
26479;DHT22;14163;-26.142;27.992;2023-01-29T16:13:46;28.50;99.90
26479;DHT22;14163;-26.142;27.992;2023-01-29T16:16:18;28.60;99.90
26479;DHT22;14163;-26.142;27.992;2023-01-29T16:18:47;28.80;99.90
26479;DHT22;14163;-26.142;27.992;2023-01-29T16:21:23;29.10;99.90
26479;DHT22;14163;-26.142;27.992;2023-01-29T16:23:52;29.10;99.90
26479;DHT22;14163;-26.142;27.992;2023-01-29T16:26:22;29.00;99.90
26479;DHT22;14163;-26.142;27.992;2023-01-29T16:28:52;28.90;99.90
26479;DHT22;14163;-26.142;27.992;2023-01-29T16:31:20;29.10;99.90
26479;DHT22;14163;-26.142;27.992;2023-01-29T16:33:49;29.30;99.90
26479;DHT22;14163;-26.142;27.992;2023-01-29T16:36:19;29.50;99.90
26479;DHT22;14163;-26.142;27.992;2023-01-29T16:38:48;29.50;99.90
26479;DHT22;14163;-26.142;27.992;2023-01-29T16:41:27;29.40;99.90
26479;DHT22;14163;-26.142;27.992;2023-01-29T16:43:56;29.20;99.90
26479;DHT22;14163;-26.142;27.992;2023-01-29T16:46:26;29.10;99.90
26479;DHT22;14163;-26.142;27.992;2023-01-29T16:48:59;29.20;99.90
26479;DHT22;14163;-26.142;27.992;2023-01-29T16:51:29;29.10;99.90
26479;DHT22;14163;-26.142;27.992;2023-01-29T16:53:59;28.70;99.90
26479;DHT22;14163;-26.142;27.992;2023-01-29T16:56:29;28.60;99.90
26479;DHT22;14163;-26.142;27.992;2023-01-29T16:58:58;28.60;99.90
26479;DHT22;14163;-26.142;27.992;2023-01-29T17:01:27;28.70;99.90
26479;DHT22;14163;-26.142;27.992;2023-01-29T17:03:58;28.80;99.90
26479;DHT22;14163;-26.142;27.992;2023-01-29T17:06:29;29.00;99.90
26479;DHT22;14163;-26.142;27.992;2023-01-29T17:08:58;29.20;99.90
26479;DHT22;14163;-26.142;27.992;2023-01-29T17:11:30;29.30;99.90
26479;DHT22;14163;-26.142;27.992;2023-01-29T17:13:59;29.40;99.90
26479;DHT22;14163;-26.142;27.992;2023-01-29T17:16:29;29.30;99.90
26479;DHT22;14163;-26.142;27.992;2023-01-29T17:18:58;29.30;99.90
26479;DHT22;14163;-26.142;27.992;2023-01-29T17:21:26;29.20;99.90
26479;DHT22;14163;-26.142;27.992;2023-01-29T17:23:57;29.20;99.90
26479;DHT22;14163;-26.142;27.992;2023-01-29T17:26:25;29.20;99.90
26479;DHT22;14163;-26.142;27.992;2023-01-29T17:28:53;29.30;99.90
26479;DHT22;14163;-26.142;27.992;2023-01-29T17:31:22;29.30;99.90
26479;DHT22;14163;-26.142;27.992;2023-01-29T17:33:50;29.30;99.90
26479;DHT22;14163;-26.142;27.992;2023-01-29T17:36:18;29.20;99.90
26479;DHT22;14163;-26.142;27.992;2023-01-29T17:38:47;29.20;99.90
26479;DHT22;14163;-26.142;27.992;2023-01-29T17:41:18;29.30;99.90
26479;DHT22;14163;-26.142;27.992;2023-01-29T17:43:49;29.30;99.90
26479;DHT22;14163;-26.142;27.992;2023-01-29T17:46:17;29.30;99.90
26479;DHT22;14163;-26.142;27.992;2023-01-29T17:48:46;29.40;99.90
26479;DHT22;14163;-26.142;27.992;2023-01-29T17:51:16;29.40;99.90
26479;DHT22;14163;-26.142;27.992;2023-01-29T17:53:44;29.40;99.90
26479;DHT22;14163;-26.142;27.992;2023-01-29T17:56:13;29.30;99.90
26479;DHT22;14163;-26.142;27.992;2023-01-29T17:59:13;29.10;99.90
26479;DHT22;14163;-26.142;27.992;2023-01-29T18:01:42;29.00;99.90
26479;DHT22;14163;-26.142;27.992;2023-01-29T18:04:10;28.90;99.90
26479;DHT22;14163;-26.142;27.992;2023-01-29T18:06:39;28.70;99.90
26479;DHT22;14163;-26.142;27.992;2023-01-29T18:09:09;28.60;99.90
26479;DHT22;14163;-26.142;27.992;2023-01-29T18:11:39;28.50;99.90
26479;DHT22;14163;-26.142;27.992;2023-01-29T18:14:07;28.40;99.90
26479;DHT22;14163;-26.142;27.992;2023-01-29T18:16:39;28.20;99.90
26479;DHT22;14163;-26.142;27.992;2023-01-29T18:19:11;28.00;99.90
26479;DHT22;14163;-26.142;27.992;2023-01-29T18:21:39;27.90;99.90
26479;DHT22;14163;-26.142;27.992;2023-01-29T18:24:08;27.70;99.90
26479;DHT22;14163;-26.142;27.992;2023-01-29T18:26:36;27.70;99.90
26479;DHT22;14163;-26.142;27.992;2023-01-29T18:29:04;27.60;99.90
26479;DHT22;14163;-26.142;27.992;2023-01-29T18:31:33;27.50;99.90
26479;DHT22;14163;-26.142;27.992;2023-01-29T18:34:03;27.50;99.90
26479;DHT22;14163;-26.142;27.992;2023-01-29T18:36:31;27.40;99.90
26479;DHT22;14163;-26.142;27.992;2023-01-29T18:38:59;27.40;99.90
26479;DHT22;14163;-26.142;27.992;2023-01-29T18:41:28;27.40;99.90
26479;DHT22;14163;-26.142;27.992;2023-01-29T18:43:56;27.40;99.90
26479;DHT22;14163;-26.142;27.992;2023-01-29T18:46:24;27.20;99.90
26479;DHT22;14163;-26.142;27.992;2023-01-29T18:48:53;27.10;99.90
26479;DHT22;14163;-26.142;27.992;2023-01-29T18:51:23;27.00;99.90
26479;DHT22;14163;-26.142;27.992;2023-01-29T18:53:51;27.00;99.90
26479;DHT22;14163;-26.142;27.992;2023-01-29T18:56:20;26.90;99.90
26479;DHT22;14163;-26.142;27.992;2023-01-29T18:58:52;26.70;99.90
26479;DHT22;14163;-26.142;27.992;2023-01-29T19:01:21;26.60;99.90
26479;DHT22;14163;-26.142;27.992;2023-01-29T19:03:49;26.60;99.90
26479;DHT22;14163;-26.142;27.992;2023-01-29T19:06:18;26.60;99.90
26479;DHT22;14163;-26.142;27.992;2023-01-29T19:08:48;26.50;99.90
26479;DHT22;14163;-26.142;27.992;2023-01-29T19:11:16;26.50;99.90
26479;DHT22;14163;-26.142;27.992;2023-01-29T19:13:44;26.50;99.90
26479;DHT22;14163;-26.142;27.992;2023-01-29T19:16:14;26.50;99.90
26479;DHT22;14163;-26.142;27.992;2023-01-29T19:18:43;26.50;99.90
26479;DHT22;14163;-26.142;27.992;2023-01-29T19:21:12;26.50;99.90
26479;DHT22;14163;-26.142;27.992;2023-01-29T19:23:40;26.40;99.90
26479;DHT22;14163;-26.142;27.992;2023-01-29T19:26:11;26.50;99.90
26479;DHT22;14163;-26.142;27.992;2023-01-29T19:28:40;26.50;99.90
26479;DHT22;14163;-26.142;27.992;2023-01-29T19:31:08;26.50;99.90
26479;DHT22;14163;-26.142;27.992;2023-01-29T19:33:37;26.60;99.90
26479;DHT22;14163;-26.142;27.992;2023-01-29T19:36:06;26.50;99.90
26479;DHT22;14163;-26.142;27.992;2023-01-29T19:38:34;26.50;99.90
26479;DHT22;14163;-26.142;27.992;2023-01-29T19:41:03;26.50;99.90
26479;DHT22;14163;-26.142;27.992;2023-01-29T19:43:33;26.60;99.90
26479;DHT22;14163;-26.142;27.992;2023-01-29T19:46:03;26.50;99.90
26479;DHT22;14163;-26.142;27.992;2023-01-29T19:48:32;26.50;99.90
26479;DHT22;14163;-26.142;27.992;2023-01-29T19:51:01;26.40;99.90
26479;DHT22;14163;-26.142;27.992;2023-01-29T19:53:30;26.50;99.90
26479;DHT22;14163;-26.142;27.992;2023-01-29T19:55:58;26.40;99.90
26479;DHT22;14163;-26.142;27.992;2023-01-29T19:58:27;26.20;99.90
26479;DHT22;14163;-26.142;27.992;2023-01-29T20:00:58;25.80;99.90
26479;DHT22;14163;-26.142;27.992;2023-01-29T20:03:27;25.70;99.90
26479;DHT22;14163;-26.142;27.992;2023-01-29T20:05:56;25.90;99.90
26479;DHT22;14163;-26.142;27.992;2023-01-29T20:08:28;26.10;99.90
26479;DHT22;14163;-26.142;27.992;2023-01-29T20:10:56;26.20;99.90
26479;DHT22;14163;-26.142;27.992;2023-01-29T20:13:25;26.30;99.90
26479;DHT22;14163;-26.142;27.992;2023-01-29T20:15:53;26.40;99.90
26479;DHT22;14163;-26.142;27.992;2023-01-29T20:18:23;26.20;99.90
26479;DHT22;14163;-26.142;27.992;2023-01-29T20:20:52;25.70;99.90
26479;DHT22;14163;-26.142;27.992;2023-01-29T20:23:20;25.10;99.90
26479;DHT22;14163;-26.142;27.992;2023-01-29T20:25:50;24.90;99.90
26479;DHT22;14163;-26.142;27.992;2023-01-29T20:28:19;24.20;99.90
26479;DHT22;14163;-26.142;27.992;2023-01-29T20:30:48;23.70;99.90
26479;DHT22;14163;-26.142;27.992;2023-01-29T20:33:19;23.70;99.90
26479;DHT22;14163;-26.142;27.992;2023-01-29T20:35:53;23.90;99.90
26479;DHT22;14163;-26.142;27.992;2023-01-29T20:38:22;23.80;99.90
26479;DHT22;14163;-26.142;27.992;2023-01-29T20:40:51;23.80;99.90
26479;DHT22;14163;-26.142;27.992;2023-01-29T20:43:19;23.90;99.90
26479;DHT22;14163;-26.142;27.992;2023-01-29T20:45:47;24.10;99.90
26479;DHT22;14163;-26.142;27.992;2023-01-29T20:48:16;24.40;99.90
26479;DHT22;14163;-26.142;27.992;2023-01-29T20:50:44;24.60;99.90
26479;DHT22;14163;-26.142;27.992;2023-01-29T20:53:14;24.70;99.90
26479;DHT22;14163;-26.142;27.992;2023-01-29T20:55:43;24.90;99.90
26479;DHT22;14163;-26.142;27.992;2023-01-29T20:58:12;25.00;99.90
26479;DHT22;14163;-26.142;27.992;2023-01-29T21:00:40;25.20;99.90
26479;DHT22;14163;-26.142;27.992;2023-01-29T21:06:29;25.50;99.90
26479;DHT22;14163;-26.142;27.992;2023-01-29T21:08:57;25.30;99.90
26479;DHT22;14163;-26.142;27.992;2023-01-29T21:11:26;25.00;99.90
26479;DHT22;14163;-26.142;27.992;2023-01-29T21:13:55;24.80;99.90
26479;DHT22;14163;-26.142;27.992;2023-01-29T21:16:23;25.10;99.90
26479;DHT22;14163;-26.142;27.992;2023-01-29T21:18:54;25.30;99.90
26479;DHT22;14163;-26.142;27.992;2023-01-29T21:21:22;25.60;99.90
26479;DHT22;14163;-26.142;27.992;2023-01-29T21:23:53;25.60;99.90
26479;DHT22;14163;-26.142;27.992;2023-01-29T21:26:21;25.70;99.90
26479;DHT22;14163;-26.142;27.992;2023-01-29T21:28:50;25.80;99.90
26479;DHT22;14163;-26.142;27.992;2023-01-29T21:31:18;25.80;99.90
26479;DHT22;14163;-26.142;27.992;2023-01-29T21:33:46;25.80;99.90
26479;DHT22;14163;-26.142;27.992;2023-01-29T21:36:15;25.80;99.90
26479;DHT22;14163;-26.142;27.992;2023-01-29T21:38:43;25.80;99.90
26479;DHT22;14163;-26.142;27.992;2023-01-29T21:41:13;25.80;99.90
26479;DHT22;14163;-26.142;27.992;2023-01-29T21:43:42;25.70;99.90
26479;DHT22;14163;-26.142;27.992;2023-01-29T21:46:10;25.80;99.90
26479;DHT22;14163;-26.142;27.992;2023-01-29T21:48:38;25.90;99.90
26479;DHT22;14163;-26.142;27.992;2023-01-29T21:51:07;25.80;99.90
26479;DHT22;14163;-26.142;27.992;2023-01-29T21:53:35;25.80;99.90
26479;DHT22;14163;-26.142;27.992;2023-01-29T21:56:04;25.80;99.90
26479;DHT22;14163;-26.142;27.992;2023-01-29T21:58:34;25.80;99.90
26479;DHT22;14163;-26.142;27.992;2023-01-29T22:01:03;25.80;99.90
26479;DHT22;14163;-26.142;27.992;2023-01-29T22:03:32;25.70;99.90
26479;DHT22;14163;-26.142;27.992;2023-01-29T22:06:00;25.70;99.90
26479;DHT22;14163;-26.142;27.992;2023-01-29T22:08:28;25.60;99.90
26479;DHT22;14163;-26.142;27.992;2023-01-29T22:11:03;25.60;99.90
26479;DHT22;14163;-26.142;27.992;2023-01-29T22:13:31;25.60;99.90
26479;DHT22;14163;-26.142;27.992;2023-01-29T22:16:02;25.60;99.90
26479;DHT22;14163;-26.142;27.992;2023-01-29T22:18:30;25.50;99.90
26479;DHT22;14163;-26.142;27.992;2023-01-29T22:20:59;25.50;99.90
26479;DHT22;14163;-26.142;27.992;2023-01-29T22:23:27;25.50;99.90
26479;DHT22;14163;-26.142;27.992;2023-01-29T22:26:00;25.40;99.90
26479;DHT22;14163;-26.142;27.992;2023-01-29T22:28:29;25.40;99.90
26479;DHT22;14163;-26.142;27.992;2023-01-29T22:31:01;25.40;99.90
26479;DHT22;14163;-26.142;27.992;2023-01-29T22:33:30;25.40;99.90
26479;DHT22;14163;-26.142;27.992;2023-01-29T22:35:58;25.40;99.90
26479;DHT22;14163;-26.142;27.992;2023-01-29T22:38:27;25.40;99.90
26479;DHT22;14163;-26.142;27.992;2023-01-29T22:40:55;25.50;99.90
26479;DHT22;14163;-26.142;27.992;2023-01-29T22:43:24;25.30;99.90
26479;DHT22;14163;-26.142;27.992;2023-01-29T22:45:54;25.30;99.90
26479;DHT22;14163;-26.142;27.992;2023-01-29T22:48:24;25.30;99.90
26479;DHT22;14163;-26.142;27.992;2023-01-29T22:50:55;25.40;99.90
26479;DHT22;14163;-26.142;27.992;2023-01-29T22:53:34;25.30;99.90
26479;DHT22;14163;-26.142;27.992;2023-01-29T22:56:02;25.40;99.90
26479;DHT22;14163;-26.142;27.992;2023-01-29T22:58:31;25.40;99.90
26479;DHT22;14163;-26.142;27.992;2023-01-29T23:00:59;25.30;99.90
26479;DHT22;14163;-26.142;27.992;2023-01-29T23:03:29;25.00;99.90
26479;DHT22;14163;-26.142;27.992;2023-01-29T23:05:57;24.70;99.90
26479;DHT22;14163;-26.142;27.992;2023-01-29T23:08:26;24.40;99.90
26479;DHT22;14163;-26.142;27.992;2023-01-29T23:10:54;24.20;99.90
26479;DHT22;14163;-26.142;27.992;2023-01-29T23:13:39;23.90;99.90
26479;DHT22;14163;-26.142;27.992;2023-01-29T23:16:07;24.00;99.90
26479;DHT22;14163;-26.142;27.992;2023-01-29T23:18:37;24.00;99.90
26479;DHT22;14163;-26.142;27.992;2023-01-29T23:21:06;23.80;99.90
26479;DHT22;14163;-26.142;27.992;2023-01-29T23:23:34;23.80;99.90
26479;DHT22;14163;-26.142;27.992;2023-01-29T23:26:04;23.70;99.90
26479;DHT22;14163;-26.142;27.992;2023-01-29T23:28:49;23.60;99.90
26479;DHT22;14163;-26.142;27.992;2023-01-29T23:31:17;23.20;99.90
26479;DHT22;14163;-26.142;27.992;2023-01-29T23:33:47;23.10;99.90
26479;DHT22;14163;-26.142;27.992;2023-01-29T23:36:16;23.00;99.90
26479;DHT22;14163;-26.142;27.992;2023-01-29T23:38:44;23.20;99.90
26479;DHT22;14163;-26.142;27.992;2023-01-29T23:41:12;23.20;99.90
26479;DHT22;14163;-26.142;27.992;2023-01-29T23:43:40;23.00;99.90
26479;DHT22;14163;-26.142;27.992;2023-01-29T23:46:09;23.20;99.90
26479;DHT22;14163;-26.142;27.992;2023-01-29T23:48:37;23.30;99.90
26479;DHT22;14163;-26.142;27.992;2023-01-29T23:51:07;23.50;99.90
26479;DHT22;14163;-26.142;27.992;2023-01-29T23:53:36;23.60;99.90
26479;DHT22;14163;-26.142;27.992;2023-01-29T23:56:04;23.90;99.90
26479;DHT22;14163;-26.142;27.992;2023-01-29T23:58:32;23.70;99.90
